sensor_id;sensor_type;location;lat;lon;timestamp;pressure;altitude;pressure_sealevel;temperature;humidity
22241;BME280;11289;52.524;13.694;2023-03-23T00:00:59;100003.38;;;11.74;65.53
22241;BME280;11289;52.524;13.694;2023-03-23T00:03:27;99998.50;;;11.71;65.89
22241;BME280;11289;52.524;13.694;2023-03-23T00:06:17;99995.97;;;11.65;66.34
22241;BME280;11289;52.524;13.694;2023-03-23T00:09:02;99994.13;;;11.57;66.40
22241;BME280;11289;52.524;13.694;2023-03-23T00:11:38;99997.97;;;11.53;66.27
22241;BME280;11289;52.524;13.694;2023-03-23T00:14:04;99992.69;;;11.47;66.81
22241;BME280;11289;52.524;13.694;2023-03-23T00:16:32;99984.69;;;11.46;66.63
22241;BME280;11289;52.524;13.694;2023-03-23T00:19:12;99974.53;;;11.38;66.12
22241;BME280;11289;52.524;13.694;2023-03-23T00:21:53;99945.84;;;11.21;66.75
22241;BME280;11289;52.524;13.694;2023-03-23T00:24:21;99946.22;;;11.20;67.18
22241;BME280;11289;52.524;13.694;2023-03-23T00:26:48;99955.09;;;11.25;67.39
22241;BME280;11289;52.524;13.694;2023-03-23T00:29:21;99959.50;;;11.26;67.15
22241;BME280;11289;52.524;13.694;2023-03-23T00:31:48;99967.16;;;11.17;67.44
22241;BME280;11289;52.524;13.694;2023-03-23T00:34:19;99963.47;;;11.13;67.45
22241;BME280;11289;52.524;13.694;2023-03-23T00:36:51;99955.72;;;11.06;67.58
22241;BME280;11289;52.524;13.694;2023-03-23T00:39:19;99930.41;;;10.95;67.28
22241;BME280;11289;52.524;13.694;2023-03-23T00:41:46;99948.91;;;11.04;67.74
22241;BME280;11289;52.524;13.694;2023-03-23T00:44:13;99953.63;;;11.03;68.12
22241;BME280;11289;52.524;13.694;2023-03-23T00:46:46;99941.72;;;11.03;68.28
22241;BME280;11289;52.524;13.694;2023-03-23T00:49:17;99937.44;;;10.93;68.31
22241;BME280;11289;52.524;13.694;2023-03-23T00:51:44;99929.69;;;10.86;67.90
22241;BME280;11289;52.524;13.694;2023-03-23T00:54:11;99928.56;;;10.87;68.11
22241;BME280;11289;52.524;13.694;2023-03-23T00:56:37;99917.22;;;10.80;67.99
22241;BME280;11289;52.524;13.694;2023-03-23T00:59:05;99938.84;;;10.87;68.52
22241;BME280;11289;52.524;13.694;2023-03-23T01:01:31;99932.47;;;10.86;68.12
22241;BME280;11289;52.524;13.694;2023-03-23T01:03:58;99942.91;;;10.89;68.54
22241;BME280;11289;52.524;13.694;2023-03-23T01:06:31;99931.69;;;10.86;68.75
22241;BME280;11289;52.524;13.694;2023-03-23T01:08:58;99938.72;;;10.83;68.69
22241;BME280;11289;52.524;13.694;2023-03-23T01:11:24;99931.34;;;10.75;68.89
22241;BME280;11289;52.524;13.694;2023-03-23T01:13:51;99923.03;;;10.75;69.07
22241;BME280;11289;52.524;13.694;2023-03-23T01:16:18;99905.91;;;10.60;69.19
22241;BME280;11289;52.524;13.694;2023-03-23T01:18:44;99910.53;;;10.69;69.30
22241;BME280;11289;52.524;13.694;2023-03-23T01:21:13;99911.13;;;10.62;68.64
22241;BME280;11289;52.524;13.694;2023-03-23T01:23:39;99924.16;;;10.61;69.01
22241;BME280;11289;52.524;13.694;2023-03-23T01:26:11;99883.38;;;10.37;69.60
22241;BME280;11289;52.524;13.694;2023-03-23T01:28:38;99907.78;;;10.56;69.48
22241;BME280;11289;52.524;13.694;2023-03-23T01:31:07;99896.88;;;10.51;69.35
22241;BME280;11289;52.524;13.694;2023-03-23T01:33:34;99896.00;;;10.47;69.56
22241;BME280;11289;52.524;13.694;2023-03-23T01:36:05;99909.38;;;10.45;69.48
22241;BME280;11289;52.524;13.694;2023-03-23T01:38:33;99883.13;;;10.30;69.92
22241;BME280;11289;52.524;13.694;2023-03-23T01:40:59;99903.59;;;10.38;69.77
22241;BME280;11289;52.524;13.694;2023-03-23T01:43:25;99868.09;;;10.19;69.63
22241;BME280;11289;52.524;13.694;2023-03-23T01:45:51;99880.56;;;10.25;69.82
22241;BME280;11289;52.524;13.694;2023-03-23T01:48:22;99879.06;;;10.15;69.98
22241;BME280;11289;52.524;13.694;2023-03-23T01:53:18;99879.88;;;10.16;69.62
22241;BME280;11289;52.524;13.694;2023-03-23T01:55:47;99879.06;;;10.03;70.02
22241;BME280;11289;52.524;13.694;2023-03-23T01:58:21;99878.13;;;9.99;69.93
22241;BME280;11289;52.524;13.694;2023-03-23T02:00:53;99880.09;;;9.98;70.27
22241;BME280;11289;52.524;13.694;2023-03-23T02:03:21;99884.50;;;9.99;70.46
22241;BME280;11289;52.524;13.694;2023-03-23T02:05:49;99872.31;;;9.91;70.23
22241;BME280;11289;52.524;13.694;2023-03-23T02:08:17;99878.00;;;9.95;70.23
22241;BME280;11289;52.524;13.694;2023-03-23T02:10:44;99872.31;;;9.91;70.52
22241;BME280;11289;52.524;13.694;2023-03-23T02:13:11;99872.13;;;9.97;70.55
22241;BME280;11289;52.524;13.694;2023-03-23T02:24:57;99867.16;;;10.02;70.72
22241;BME280;11289;52.524;13.694;2023-03-23T02:35:41;99865.63;;;9.92;70.40
22241;BME280;11289;52.524;13.694;2023-03-23T02:38:24;99841.59;;;9.84;70.71
22241;BME280;11289;52.524;13.694;2023-03-23T02:40:53;99841.13;;;9.82;70.62
22241;BME280;11289;52.524;13.694;2023-03-23T02:43:22;99840.34;;;9.82;70.78
22241;BME280;11289;52.524;13.694;2023-03-23T02:45:50;99860.44;;;9.91;70.88
22241;BME280;11289;52.524;13.694;2023-03-23T02:48:20;99850.84;;;9.88;70.91
22241;BME280;11289;52.524;13.694;2023-03-23T02:50:51;99849.56;;;9.86;71.28
22241;BME280;11289;52.524;13.694;2023-03-23T02:53:21;99854.34;;;9.98;70.37
22241;BME280;11289;52.524;13.694;2023-03-23T02:55:49;99874.19;;;10.00;70.66
22241;BME280;11289;52.524;13.694;2023-03-23T02:58:18;99849.69;;;9.89;70.71
22241;BME280;11289;52.524;13.694;2023-03-23T03:00:45;99827.03;;;9.87;70.59
22241;BME280;11289;52.524;13.694;2023-03-23T03:03:21;99840.22;;;9.90;70.48
22241;BME280;11289;52.524;13.694;2023-03-23T03:06:22;99858.72;;;10.11;70.46
22241;BME280;11289;52.524;13.694;2023-03-23T03:08:59;99862.66;;;10.10;71.20
22241;BME280;11289;52.524;13.694;2023-03-23T03:11:31;99875.38;;;10.11;71.47
22241;BME280;11289;52.524;13.694;2023-03-23T03:14:03;99864.72;;;10.13;71.53
22241;BME280;11289;52.524;13.694;2023-03-23T03:16:47;99857.56;;;10.12;71.07
22241;BME280;11289;52.524;13.694;2023-03-23T03:19:37;99857.78;;;10.19;71.20
22241;BME280;11289;52.524;13.694;2023-03-23T03:22:06;99843.69;;;10.12;70.97
22241;BME280;11289;52.524;13.694;2023-03-23T03:24:34;99838.97;;;10.13;70.64
22241;BME280;11289;52.524;13.694;2023-03-23T03:27:04;99839.53;;;10.18;70.85
22241;BME280;11289;52.524;13.694;2023-03-23T03:29:38;99835.00;;;10.14;70.18
22241;BME280;11289;52.524;13.694;2023-03-23T03:32:11;99834.22;;;10.13;71.35
22241;BME280;11289;52.524;13.694;2023-03-23T03:34:37;99849.25;;;10.24;71.13
22241;BME280;11289;52.524;13.694;2023-03-23T03:37:05;99846.47;;;10.24;71.53
22241;BME280;11289;52.524;13.694;2023-03-23T03:39:35;99841.16;;;10.32;71.80
22241;BME280;11289;52.524;13.694;2023-03-23T03:42:06;99847.84;;;10.31;71.63
22241;BME280;11289;52.524;13.694;2023-03-23T03:44:54;99830.53;;;10.21;72.28
22241;BME280;11289;52.524;13.694;2023-03-23T03:47:39;99848.34;;;10.33;72.55
22241;BME280;11289;52.524;13.694;2023-03-23T03:50:16;99826.00;;;10.29;72.39
22241;BME280;11289;52.524;13.694;2023-03-23T03:53:11;99825.78;;;10.22;72.42
22241;BME280;11289;52.524;13.694;2023-03-23T03:55:52;99836.09;;;10.34;72.26
22241;BME280;11289;52.524;13.694;2023-03-23T03:58:49;99832.16;;;10.35;72.63
22241;BME280;11289;52.524;13.694;2023-03-23T04:01:18;99815.25;;;10.27;72.85
22241;BME280;11289;52.524;13.694;2023-03-23T04:03:47;99838.16;;;10.37;73.06
22241;BME280;11289;52.524;13.694;2023-03-23T04:06:17;99812.25;;;10.20;73.60
22241;BME280;11289;52.524;13.694;2023-03-23T04:08:45;99820.09;;;10.31;74.44
22241;BME280;11289;52.524;13.694;2023-03-23T04:11:12;99825.13;;;10.37;74.79
22241;BME280;11289;52.524;13.694;2023-03-23T04:13:39;99822.00;;;10.39;75.58
22241;BME280;11289;52.524;13.694;2023-03-23T04:16:06;99835.84;;;10.39;76.08
22241;BME280;11289;52.524;13.694;2023-03-23T04:18:35;99842.34;;;10.43;75.91
22241;BME280;11289;52.524;13.694;2023-03-23T04:21:02;99846.84;;;10.48;76.13
22241;BME280;11289;52.524;13.694;2023-03-23T04:23:30;99821.63;;;10.40;76.17
22241;BME280;11289;52.524;13.694;2023-03-23T04:25:59;99816.09;;;10.40;76.07
22241;BME280;11289;52.524;13.694;2023-03-23T04:28:25;99807.31;;;10.38;76.31
22241;BME280;11289;52.524;13.694;2023-03-23T04:30:52;99808.13;;;10.39;76.69
22241;BME280;11289;52.524;13.694;2023-03-23T04:33:26;99813.88;;;10.34;76.94
22241;BME280;11289;52.524;13.694;2023-03-23T04:35:54;99824.41;;;10.40;77.03
22241;BME280;11289;52.524;13.694;2023-03-23T04:38:21;99827.28;;;10.44;77.01
22241;BME280;11289;52.524;13.694;2023-03-23T04:40:50;99807.19;;;10.35;77.43
22241;BME280;11289;52.524;13.694;2023-03-23T04:43:22;99819.22;;;10.39;77.90
22241;BME280;11289;52.524;13.694;2023-03-23T04:45:55;99823.03;;;10.34;77.91
22241;BME280;11289;52.524;13.694;2023-03-23T04:48:23;99820.25;;;10.34;78.27
22241;BME280;11289;52.524;13.694;2023-03-23T04:50:49;99825.47;;;10.36;78.93
22241;BME280;11289;52.524;13.694;2023-03-23T04:53:16;99830.53;;;10.34;79.34
22241;BME280;11289;52.524;13.694;2023-03-23T04:55:43;99824.50;;;10.32;79.25
22241;BME280;11289;52.524;13.694;2023-03-23T04:58:10;99835.59;;;10.32;79.59
22241;BME280;11289;52.524;13.694;2023-03-23T05:00:38;99841.03;;;10.28;79.60
22241;BME280;11289;52.524;13.694;2023-03-23T05:03:04;99839.31;;;10.23;79.72
22241;BME280;11289;52.524;13.694;2023-03-23T05:05:30;99837.00;;;10.25;79.50
22241;BME280;11289;52.524;13.694;2023-03-23T05:07:57;99834.44;;;10.20;79.02
22241;BME280;11289;52.524;13.694;2023-03-23T05:10:23;99853.53;;;10.22;78.77
22241;BME280;11289;52.524;13.694;2023-03-23T05:12:49;99853.53;;;10.22;79.08
22241;BME280;11289;52.524;13.694;2023-03-23T05:15:16;99847.97;;;10.22;78.68
22241;BME280;11289;52.524;13.694;2023-03-23T05:17:43;99856.78;;;10.24;79.02
22241;BME280;11289;52.524;13.694;2023-03-23T05:20:13;99850.41;;;10.23;79.19
22241;BME280;11289;52.524;13.694;2023-03-23T05:22:41;99839.31;;;10.23;79.58
22241;BME280;11289;52.524;13.694;2023-03-23T05:25:08;99841.63;;;10.21;80.16
22241;BME280;11289;52.524;13.694;2023-03-23T05:27:35;99842.31;;;10.18;80.29
22241;BME280;11289;52.524;13.694;2023-03-23T05:30:02;99855.50;;;10.21;80.76
22241;BME280;11289;52.524;13.694;2023-03-23T05:32:29;99848.78;;;10.22;81.34
22241;BME280;11289;52.524;13.694;2023-03-23T05:34:56;99842.41;;;10.22;81.28
22241;BME280;11289;52.524;13.694;2023-03-23T05:37:22;99845.53;;;10.20;81.22
22241;BME280;11289;52.524;13.694;2023-03-23T05:39:49;99845.53;;;10.20;81.35
22241;BME280;11289;52.524;13.694;2023-03-23T05:42:20;99853.53;;;10.22;81.51
22241;BME280;11289;52.524;13.694;2023-03-23T05:44:46;99863.13;;;10.24;81.99
22241;BME280;11289;52.524;13.694;2023-03-23T05:47:13;99842.31;;;10.18;82.10
22241;BME280;11289;52.524;13.694;2023-03-23T05:49:39;99859.53;;;10.24;82.02
22241;BME280;11289;52.524;13.694;2023-03-23T05:52:05;99857.91;;;10.23;82.18
22241;BME280;11289;52.524;13.694;2023-03-23T05:54:31;99855.94;;;10.23;82.68
22241;BME280;11289;52.524;13.694;2023-03-23T05:56:57;99862.31;;;10.24;82.91
22241;BME280;11289;52.524;13.694;2023-03-23T05:59:23;99869.47;;;10.25;83.28
22241;BME280;11289;52.524;13.694;2023-03-23T06:01:51;99871.09;;;10.26;83.27
22241;BME280;11289;52.524;13.694;2023-03-23T06:04:17;99870.16;;;10.22;83.55
22241;BME280;11289;52.524;13.694;2023-03-23T06:06:43;99869.38;;;10.21;83.55
22241;BME280;11289;52.524;13.694;2023-03-23T06:09:09;99876.53;;;10.22;83.44
22241;BME280;11289;52.524;13.694;2023-03-23T06:11:35;99876.41;;;10.19;83.54
22241;BME280;11289;52.524;13.694;2023-03-23T06:14:01;99884.38;;;10.20;83.87
22241;BME280;11289;52.524;13.694;2023-03-23T06:16:27;99886.56;;;10.15;83.74
22241;BME280;11289;52.524;13.694;2023-03-23T06:18:53;99890.03;;;10.11;84.33
22241;BME280;11289;52.524;13.694;2023-03-23T06:21:19;99888.88;;;10.13;84.85
22241;BME280;11289;52.524;13.694;2023-03-23T06:23:47;99892.00;;;10.11;85.33
22241;BME280;11289;52.524;13.694;2023-03-23T06:26:14;99890.72;;;10.08;86.06
22241;BME280;11289;52.524;13.694;2023-03-23T06:28:42;99888.66;;;10.05;86.10
22241;BME280;11289;52.524;13.694;2023-03-23T06:31:09;99893.72;;;10.03;86.82
22241;BME280;11289;52.524;13.694;2023-03-23T06:33:36;99900.09;;;10.04;88.02
22241;BME280;11289;52.524;13.694;2023-03-23T06:36:04;99891.19;;;9.98;88.56
22241;BME280;11289;52.524;13.694;2023-03-23T06:38:30;99899.94;;;10.00;88.96
22241;BME280;11289;52.524;13.694;2023-03-23T06:40:57;99905.84;;;9.99;89.85
22241;BME280;11289;52.524;13.694;2023-03-23T06:43:24;99902.28;;;9.98;90.06
22241;BME280;11289;52.524;13.694;2023-03-23T06:45:50;99910.59;;;9.98;90.25
22241;BME280;11289;52.524;13.694;2023-03-23T06:48:17;99904.09;;;9.94;90.55
22241;BME280;11289;52.524;13.694;2023-03-23T06:50:44;99912.22;;;9.99;91.06
22241;BME280;11289;52.524;13.694;2023-03-23T06:53:11;99902.63;;;9.97;91.13
22241;BME280;11289;52.524;13.694;2023-03-23T06:55:37;99896.25;;;9.96;91.46
22241;BME280;11289;52.524;13.694;2023-03-23T06:58:04;99913.03;;;10.00;91.75
22241;BME280;11289;52.524;13.694;2023-03-23T07:00:32;99911.03;;;10.00;91.87
22241;BME280;11289;52.524;13.694;2023-03-23T07:02:58;99925.06;;;10.04;92.17
22241;BME280;11289;52.524;13.694;2023-03-23T07:05:24;99921.25;;;10.08;92.12
22241;BME280;11289;52.524;13.694;2023-03-23T07:07:51;99922.03;;;10.09;92.32
22241;BME280;11289;52.524;13.694;2023-03-23T07:10:17;99910.25;;;10.12;92.48
22241;BME280;11289;52.524;13.694;2023-03-23T07:12:43;99909.09;;;10.13;92.47
22241;BME280;11289;52.524;13.694;2023-03-23T07:15:09;99912.22;;;10.11;92.30
22241;BME280;11289;52.524;13.694;2023-03-23T07:17:39;99911.19;;;10.16;92.48
22241;BME280;11289;52.524;13.694;2023-03-23T07:20:06;99920.09;;;10.22;92.47
22241;BME280;11289;52.524;13.694;2023-03-23T07:22:33;99930.50;;;10.25;92.36
22241;BME280;11289;52.524;13.694;2023-03-23T07:24:59;99913.06;;;10.24;92.50
22241;BME280;11289;52.524;13.694;2023-03-23T07:27:25;99914.78;;;10.29;92.35
22241;BME280;11289;52.524;13.694;2023-03-23T07:29:51;99908.31;;;10.25;92.43
22241;BME280;11289;52.524;13.694;2023-03-23T07:32:17;99913.28;;;10.32;92.41
22241;BME280;11289;52.524;13.694;2023-03-23T07:34:44;99927.28;;;10.35;92.55
22241;BME280;11289;52.524;13.694;2023-03-23T07:37:10;99916.78;;;10.41;92.51
22241;BME280;11289;52.524;13.694;2023-03-23T07:39:36;99909.28;;;10.41;92.43
22241;BME280;11289;52.524;13.694;2023-03-23T07:42:03;99889.72;;;10.38;91.93
22241;BME280;11289;52.524;13.694;2023-03-23T07:44:29;99894.81;;;10.36;91.99
22241;BME280;11289;52.524;13.694;2023-03-23T07:46:55;99914.25;;;10.36;92.58
22241;BME280;11289;52.524;13.694;2023-03-23T07:49:21;99912.63;;;10.35;92.71
22241;BME280;11289;52.524;13.694;2023-03-23T07:51:47;99910.44;;;10.40;92.75
22241;BME280;11289;52.524;13.694;2023-03-23T07:54:13;99901.66;;;10.38;92.24
22241;BME280;11289;52.524;13.694;2023-03-23T07:56:40;99904.09;;;10.40;92.31
22241;BME280;11289;52.524;13.694;2023-03-23T07:59:07;99907.09;;;10.47;92.95
22241;BME280;11289;52.524;13.694;2023-03-23T08:01:33;99921.75;;;10.48;92.53
22241;BME280;11289;52.524;13.694;2023-03-23T08:03:59;99917.59;;;10.54;92.91
22241;BME280;11289;52.524;13.694;2023-03-23T08:06:26;99896.44;;;10.49;93.06
22241;BME280;11289;52.524;13.694;2023-03-23T08:08:53;99897.59;;;10.60;92.88
22241;BME280;11289;52.524;13.694;2023-03-23T08:11:20;99892.13;;;10.64;92.75
22241;BME280;11289;52.524;13.694;2023-03-23T08:13:46;99872.63;;;10.60;92.73
22241;BME280;11289;52.524;13.694;2023-03-23T08:16:13;99860.47;;;10.65;92.15
22241;BME280;11289;52.524;13.694;2023-03-23T08:18:39;99848.78;;;10.59;91.96
22241;BME280;11289;52.524;13.694;2023-03-23T08:21:06;99863.94;;;10.62;91.97
22241;BME280;11289;52.524;13.694;2023-03-23T08:23:36;99873.88;;;10.63;92.46
22241;BME280;11289;52.524;13.694;2023-03-23T08:26:05;99889.84;;;10.66;92.27
22241;BME280;11289;52.524;13.694;2023-03-23T08:28:33;99891.78;;;10.66;92.60
22241;BME280;11289;52.524;13.694;2023-03-23T08:31:00;99899.91;;;10.71;92.53
22241;BME280;11289;52.524;13.694;2023-03-23T08:33:26;99901.03;;;10.70;92.62
22241;BME280;11289;52.524;13.694;2023-03-23T08:35:57;99919.44;;;10.74;92.85
22241;BME280;11289;52.524;13.694;2023-03-23T08:38:24;99920.25;;;10.75;92.85
22241;BME280;11289;52.524;13.694;2023-03-23T08:40:50;99916.78;;;10.78;92.60
22241;BME280;11289;52.524;13.694;2023-03-23T08:43:18;99923.59;;;10.80;92.36
22241;BME280;11289;52.524;13.694;2023-03-23T08:45:44;99919.66;;;10.82;92.49
22241;BME280;11289;52.524;13.694;2023-03-23T08:48:10;99920.34;;;10.78;92.35
22241;BME280;11289;52.524;13.694;2023-03-23T08:50:36;99920.56;;;10.86;92.49
22241;BME280;11289;52.524;13.694;2023-03-23T08:53:03;99928.69;;;10.91;91.97
22241;BME280;11289;52.524;13.694;2023-03-23T08:55:29;99920.44;;;10.94;92.27
22241;BME280;11289;52.524;13.694;2023-03-23T08:57:55;99902.63;;;10.95;92.05
22241;BME280;11289;52.524;13.694;2023-03-23T09:00:22;99908.63;;;10.97;91.86
22241;BME280;11289;52.524;13.694;2023-03-23T09:02:52;99901.91;;;10.98;91.49
22241;BME280;11289;52.524;13.694;2023-03-23T09:05:21;99910.91;;;11.08;92.01
22241;BME280;11289;52.524;13.694;2023-03-23T09:07:51;99901.34;;;11.05;92.25
22241;BME280;11289;52.524;13.694;2023-03-23T09:10:18;99925.94;;;11.19;91.90
22241;BME280;11289;52.524;13.694;2023-03-23T09:12:46;99926.50;;;11.25;91.71
22241;BME280;11289;52.524;13.694;2023-03-23T09:15:15;99917.56;;;11.31;91.75
22241;BME280;11289;52.524;13.694;2023-03-23T09:17:46;99920.16;;;11.53;91.75
22241;BME280;11289;52.524;13.694;2023-03-23T09:20:14;99927.00;;;11.71;90.59
22241;BME280;11289;52.524;13.694;2023-03-23T09:22:43;99932.41;;;11.80;89.34
22241;BME280;11289;52.524;13.694;2023-03-23T09:25:14;99937.53;;;11.78;87.61
22241;BME280;11289;52.524;13.694;2023-03-23T09:27:41;99938.69;;;11.77;88.15
22241;BME280;11289;52.524;13.694;2023-03-23T09:30:11;99932.78;;;11.78;87.05
22241;BME280;11289;52.524;13.694;2023-03-23T09:32:38;99924.50;;;11.82;87.77
22241;BME280;11289;52.524;13.694;2023-03-23T09:35:07;99921.06;;;11.85;88.01
22241;BME280;11289;52.524;13.694;2023-03-23T09:37:34;99921.50;;;11.87;87.74
22241;BME280;11289;52.524;13.694;2023-03-23T09:40:06;99920.09;;;11.93;87.31
22241;BME280;11289;52.524;13.694;2023-03-23T09:42:51;99924.22;;;11.99;87.28
22241;BME280;11289;52.524;13.694;2023-03-23T09:48:45;99922.09;;;12.09;86.17
22241;BME280;11289;52.524;13.694;2023-03-23T09:53:50;99935.91;;;12.21;85.29
22241;BME280;11289;52.524;13.694;2023-03-23T09:56:17;99932.75;;;12.39;85.61
22241;BME280;11289;52.524;13.694;2023-03-23T10:02:01;99947.56;;;12.75;83.70
22241;BME280;11289;52.524;13.694;2023-03-23T10:04:32;99933.91;;;12.85;83.16
22241;BME280;11289;52.524;13.694;2023-03-23T10:07:06;99931.69;;;12.95;82.10
22241;BME280;11289;52.524;13.694;2023-03-23T10:09:35;99924.66;;;13.01;81.25
22241;BME280;11289;52.524;13.694;2023-03-23T10:12:27;99924.03;;;13.07;80.73
22241;BME280;11289;52.524;13.694;2023-03-23T10:25:57;99921.09;;;13.00;79.88
22241;BME280;11289;52.524;13.694;2023-03-23T10:28:36;99916.41;;;13.04;79.48
22241;BME280;11289;52.524;13.694;2023-03-23T10:31:03;99910.47;;;13.06;79.70
22241;BME280;11289;52.524;13.694;2023-03-23T10:33:40;99913.03;;;13.15;78.92
22241;BME280;11289;52.524;13.694;2023-03-23T10:36:10;99909.31;;;13.27;78.69
22241;BME280;11289;52.524;13.694;2023-03-23T10:38:47;99903.00;;;13.30;77.70
22241;BME280;11289;52.524;13.694;2023-03-23T10:41:17;99897.69;;;13.40;76.32
22241;BME280;11289;52.524;13.694;2023-03-23T10:43:44;99900.69;;;13.51;76.39
22241;BME280;11289;52.524;13.694;2023-03-23T10:49:30;99902.72;;;13.74;75.79
22241;BME280;11289;52.524;13.694;2023-03-23T10:55:06;99888.22;;;13.88;73.83
22241;BME280;11289;52.524;13.694;2023-03-23T10:57:34;99899.50;;;13.95;74.02
22241;BME280;11289;52.524;13.694;2023-03-23T11:00:05;99898.31;;;13.96;74.01
22241;BME280;11289;52.524;13.694;2023-03-23T11:02:40;99902.22;;;13.91;72.52
22241;BME280;11289;52.524;13.694;2023-03-23T11:05:19;99905.69;;;13.85;72.36
22241;BME280;11289;52.524;13.694;2023-03-23T11:07:54;99908.06;;;13.83;71.39
22241;BME280;11289;52.524;13.694;2023-03-23T11:12:50;99900.78;;;13.78;72.14
22241;BME280;11289;52.524;13.694;2023-03-23T11:15:27;99910.84;;;13.83;72.36
22241;BME280;11289;52.524;13.694;2023-03-23T11:17:59;99911.63;;;13.83;71.41
22241;BME280;11289;52.524;13.694;2023-03-23T11:20:27;99909.28;;;13.85;70.35
22241;BME280;11289;52.524;13.694;2023-03-23T11:22:54;99926.09;;;13.89;71.37
22241;BME280;11289;52.524;13.694;2023-03-23T11:25:20;99907.88;;;13.95;72.14
22241;BME280;11289;52.524;13.694;2023-03-23T11:27:49;99923.19;;;14.05;70.97
22241;BME280;11289;52.524;13.694;2023-03-23T11:30:21;99921.72;;;14.11;71.33
22241;BME280;11289;52.524;13.694;2023-03-23T11:32:50;99910.03;;;14.05;69.79
22241;BME280;11289;52.524;13.694;2023-03-23T11:35:26;99915.00;;;14.16;70.15
22241;BME280;11289;52.524;13.694;2023-03-23T11:37:57;99911.03;;;14.17;68.88
22241;BME280;11289;52.524;13.694;2023-03-23T11:40:26;99911.97;;;14.24;69.99
22241;BME280;11289;52.524;13.694;2023-03-23T11:45:25;99919.16;;;14.49;68.08
22241;BME280;11289;52.524;13.694;2023-03-23T11:48:02;99920.03;;;14.53;67.90
22241;BME280;11289;52.524;13.694;2023-03-23T11:50:34;99920.13;;;14.60;68.40
22241;BME280;11289;52.524;13.694;2023-03-23T11:56:11;99918.22;;;14.64;65.79
22241;BME280;11289;52.524;13.694;2023-03-23T11:58:38;99922.19;;;14.63;64.43
22241;BME280;11289;52.524;13.694;2023-03-23T12:14:36;99929.13;;;15.00;64.77
22241;BME280;11289;52.524;13.694;2023-03-23T12:17:22;99958.84;;;15.11;64.35
22241;BME280;11289;52.524;13.694;2023-03-23T12:30:41;99926.34;;;15.30;62.79
22241;BME280;11289;52.524;13.694;2023-03-23T12:38:39;99930.69;;;15.27;62.07
22241;BME280;11289;52.524;13.694;2023-03-23T12:41:27;99921.44;;;15.23;62.21
22241;BME280;11289;52.524;13.694;2023-03-23T12:44:00;99919.94;;;15.29;62.78
22241;BME280;11289;52.524;13.694;2023-03-23T12:52:06;99897.44;;;15.19;60.55
22241;BME280;11289;52.524;13.694;2023-03-23T12:54:47;99908.63;;;15.19;61.36
22241;BME280;11289;52.524;13.694;2023-03-23T13:02:55;99883.31;;;15.08;60.49
22241;BME280;11289;52.524;13.694;2023-03-23T13:07:57;99860.50;;;15.02;60.63
22241;BME280;11289;52.524;13.694;2023-03-23T13:10:32;99886.69;;;15.21;60.87
22241;BME280;11289;52.524;13.694;2023-03-23T13:12:59;99909.97;;;15.32;60.86
22241;BME280;11289;52.524;13.694;2023-03-23T13:23:37;99898.06;;;15.73;59.03
22241;BME280;11289;52.524;13.694;2023-03-23T13:26:16;99903.13;;;15.94;59.50
22241;BME280;11289;52.524;13.694;2023-03-23T13:31:24;99912.06;;;16.10;58.14
22241;BME280;11289;52.524;13.694;2023-03-23T13:33:58;99896.75;;;15.97;57.67
22241;BME280;11289;52.524;13.694;2023-03-23T13:36:36;99892.66;;;15.87;57.85
22241;BME280;11289;52.524;13.694;2023-03-23T13:39:05;99890.75;;;15.98;57.16
22241;BME280;11289;52.524;13.694;2023-03-23T13:41:47;99887.88;;;15.91;56.62
22241;BME280;11289;52.524;13.694;2023-03-23T13:44:23;99886.25;;;15.87;58.09
22241;BME280;11289;52.524;13.694;2023-03-23T13:46:57;99886.78;;;15.99;57.96
22241;BME280;11289;52.524;13.694;2023-03-23T13:49:32;99870.19;;;16.21;56.30
22241;BME280;11289;52.524;13.694;2023-03-23T13:52:05;99876.81;;;16.54;56.79
22241;BME280;11289;52.524;13.694;2023-03-23T13:54:44;99876.41;;;16.48;54.95
22241;BME280;11289;52.524;13.694;2023-03-23T14:03:05;99868.06;;;16.59;55.28
22241;BME280;11289;52.524;13.694;2023-03-23T14:05:43;99864.56;;;16.73;53.87
22241;BME280;11289;52.524;13.694;2023-03-23T14:08:13;99858.53;;;16.71;54.46
22241;BME280;11289;52.524;13.694;2023-03-23T14:10:43;99859.69;;;16.63;54.21
22241;BME280;11289;52.524;13.694;2023-03-23T14:13:17;99870.91;;;16.66;53.96
22241;BME280;11289;52.524;13.694;2023-03-23T14:15:58;99871.00;;;16.84;54.09
22241;BME280;11289;52.524;13.694;2023-03-23T14:18:29;99873.88;;;16.92;52.95
22241;BME280;11289;52.524;13.694;2023-03-23T14:20:57;99874.28;;;16.90;54.10
22241;BME280;11289;52.524;13.694;2023-03-23T14:23:23;99863.16;;;17.12;53.57
22241;BME280;11289;52.524;13.694;2023-03-23T14:25:58;99870.44;;;17.27;51.97
22241;BME280;11289;52.524;13.694;2023-03-23T14:28:41;99877.53;;;17.03;51.65
22241;BME280;11289;52.524;13.694;2023-03-23T14:31:23;99878.28;;;16.93;52.10
22241;BME280;11289;52.524;13.694;2023-03-23T14:33:51;99880.63;;;16.87;51.95
22241;BME280;11289;52.524;13.694;2023-03-23T14:36:27;99866.97;;;16.75;52.76
22241;BME280;11289;52.524;13.694;2023-03-23T14:39:01;99880.44;;;16.54;52.62
22241;BME280;11289;52.524;13.694;2023-03-23T14:41:30;99870.63;;;16.30;52.88
22241;BME280;11289;52.524;13.694;2023-03-23T14:43:57;99871.34;;;16.20;54.05
22241;BME280;11289;52.524;13.694;2023-03-23T14:46:25;99872.09;;;16.13;54.84
22241;BME280;11289;52.524;13.694;2023-03-23T14:48:52;99872.81;;;16.03;55.12
22241;BME280;11289;52.524;13.694;2023-03-23T14:51:20;99865.47;;;15.88;54.81
22241;BME280;11289;52.524;13.694;2023-03-23T14:53:46;99863.78;;;15.79;55.13
22241;BME280;11289;52.524;13.694;2023-03-23T14:56:22;99873.19;;;15.64;55.34
22241;BME280;11289;52.524;13.694;2023-03-23T14:58:50;99873.88;;;15.54;55.31